Cruise inventory

RRS Challenger CH14/79

Cruise summary report

Cruise Info. 
Ship name (ship code)RRS Challenger (74CH)
Cruise identifierCH14/79
Cruise period1979-09-21 — 1979-10-02
StatusCompleted
Port of departureArdrossan, United Kingdom
Port of returnArdrossan, United Kingdom
ObjectivesRecovery of current meter and bottom pressure recorder moorings deployed on Shackleton 7/79. Conduct a CTD survey to ascertain water density distribution in the area 55-56N and 4-12W. Part of the studies of the Islay-Mull amphidrome, North Channel tidal dynamics and the shelf-edge tidal regime.
Chief scientistAlan J Harrison (Institute of Oceanographic Sciences Bidston Laboratory)
Cruise reportRRS Challenger CH14/79 cruise report ch14_79andshackleton7_79.pdf — access key 'C' (0.85 MB) 
Ocean/sea areas 
GeneralIrish Sea and St. George's Channel
North East Atlantic Ocean (limit 40W)
SpecificNorth Channel/Malin Shelf
Track chartsRRS Challenger CH14/79 cruise track — trk2323c.html RRS Challenger CH14/79 cruise track — trk2323d.html
Measurements 
Physical oceanography 
Surface measurements underway (T,S)Quantity: activity duration in days = 10
CTD stationsQuantity: number of stations = 80
Current metersQuantity: number of deployments = 21
Description: 45 days
Sea level (inc. bot. press., inverted echosounder)Quantity: number of deployments = 6
Description: 45 days
Data held at BODC 
Series/Profiles 
76  CTD/STD cast
Vertical spatial coordinates
Salinity of the water column
Temperature of the water column
Reference numbers
Vertical spatial coordinates
Salinity of the water column
Temperature of the water column
Reference numbers

BODC idDate/TimeLocationDoc.
5432141979-09-30 20:29  — 1979-09-30 20:31 54° 40' 18" N  5° 20' 12" W  View metadata report for BODC series reference number 543214
5432261979-09-30 21:29  — 1979-09-30 21:31 54° 40' 19" N  5° 9' 53" W  View metadata report for BODC series reference number 543226
5432381979-09-30 22:28  — 1979-09-30 22:30 54° 40' 13" N  5° 0' 11" W  View metadata report for BODC series reference number 543238
5432511979-09-30 23:48  — 1979-09-30 23:49 54° 48' 26" N  5° 8' 9" W  View metadata report for BODC series reference number 543251
5432631979-10-01 01:29  — 1979-10-01 01:30 54° 58' 0" N  5° 14' 43" W  View metadata report for BODC series reference number 543263
5432751979-10-01 02:59  — 1979-10-01 03:00 55° 7' 27" N  5° 15' 39" W  View metadata report for BODC series reference number 543275
5432871979-10-01 04:32  — 1979-10-01 04:33 55° 13' 31" N  5° 28' 37" W  View metadata report for BODC series reference number 543287
5432991979-10-01 06:17  — 1979-10-01 06:19 55° 15' 15" N  5° 45' 22" W  View metadata report for BODC series reference number 543299
5433061979-10-01 13:25  — 1979-10-01 13:30 55° 51' 41" N  5° 44' 31" W  View metadata report for BODC series reference number 543306
5433181979-10-01 15:11  — 1979-10-01 15:12 55° 41' 55" N  5° 56' 1" W  View metadata report for BODC series reference number 543318
5433311979-10-01 16:50  — 1979-10-01 16:52 55° 31' 25" N  6° 7' 32" W  View metadata report for BODC series reference number 543331
5433431979-10-01 18:27  — 1979-10-01 18:29 55° 34' 40" N  6° 25' 14" W  View metadata report for BODC series reference number 543343
5433551979-10-01 19:45  — 1979-10-01 19:47 55° 37' 18" N  6° 41' 52" W  View metadata report for BODC series reference number 543355
5433671979-10-01 21:03  — 1979-10-01 21:04 55° 40' 27" N  6° 58' 46" W  View metadata report for BODC series reference number 543367
5433791979-10-01 22:37  — 1979-10-01 22:38 55° 33' 18" N  6° 54' 43" W  View metadata report for BODC series reference number 543379
5433801979-10-02 00:12  — 1979-10-02 00:13 55° 32' 4" N  6° 40' 43" W  View metadata report for BODC series reference number 543380
5433921979-10-02 02:00  — 1979-10-02 02:03 55° 27' 56" N  6° 21' 8" W  View metadata report for BODC series reference number 543392
5434111979-10-02 03:52  — 1979-10-02 03:53 55° 25' 49" N  5° 58' 54" W  View metadata report for BODC series reference number 543411
5434231979-10-02 05:15  — 1979-10-02 05:16 55° 15' 15" N  5° 46' 21" W  View metadata report for BODC series reference number 543423
5434351979-10-02 07:19  — 1979-10-02 07:20 55° 19' 11" N  5° 19' 46" W  View metadata report for BODC series reference number 543435
5426041979-09-21 14:30  — 1979-09-21 14:46 54° 57' 33" N  5° 14' 3" W  View metadata report for BODC series reference number 542604
5426161979-09-21 21:41  — 1979-09-21 21:44 54° 51' 31" N  5° 10' 37" W  View metadata report for BODC series reference number 542616
5426281979-09-21 22:40  — 1979-09-21 22:43 54° 45' 54" N  5° 5' 17" W  View metadata report for BODC series reference number 542628
5426411979-09-22 00:54  — 1979-09-22 00:55 54° 40' 2" N  5° 8' 52" W  View metadata report for BODC series reference number 542641
5426531979-09-22 02:02  — 1979-09-22 02:02 54° 40' 29" N  5° 17' 31" W  View metadata report for BODC series reference number 542653
5426651979-09-22 03:03  — 1979-09-22 03:04 54° 39' 56" N  5° 25' 2" W  View metadata report for BODC series reference number 542665
5426771979-09-22 03:56  — 1979-09-22 03:57 54° 45' 6" N  5° 32' 12" W  View metadata report for BODC series reference number 542677
5426891979-09-22 04:50  — 1979-09-22 04:51 54° 49' 18" N  5° 38' 12" W  View metadata report for BODC series reference number 542689
5426901979-09-22 08:21  — 1979-09-22 08:23 54° 53' 38" N  5° 37' 20" W  View metadata report for BODC series reference number 542690
5427081979-09-22 10:31  — 1979-09-22 10:32 54° 56' 49" N  5° 35' 42" W  View metadata report for BODC series reference number 542708
5427211979-09-22 11:38  — 1979-09-22 11:40 54° 57' 28" N  5° 25' 55" W  View metadata report for BODC series reference number 542721
5427331979-09-22 14:29  — 1979-09-22 14:30 54° 58' 14" N  5° 14' 19" W  View metadata report for BODC series reference number 542733
5427451979-09-22 15:30  — 1979-09-22 15:33 55° 1' 13" N  5° 21' 38" W  View metadata report for BODC series reference number 542745
5427571979-09-22 16:16  — 1979-09-22 16:17 55° 4' 22" N  5° 27' 46" W  View metadata report for BODC series reference number 542757
5427691979-09-22 17:00  — 1979-09-22 17:02 55° 7' 14" N  5° 34' 13" W  View metadata report for BODC series reference number 542769
5427701979-09-22 17:44  — 1979-09-22 17:46 55° 10' 34" N  5° 40' 43" W  View metadata report for BODC series reference number 542770
5427821979-09-22 18:34  — 1979-09-22 18:36 55° 13' 38" N  5° 45' 25" W  View metadata report for BODC series reference number 542782
5427941979-09-22 19:54  — 1979-09-22 19:57 55° 17' 17" N  5° 50' 23" W  View metadata report for BODC series reference number 542794
5428011979-09-22 22:11  — 1979-09-22 22:12 55° 22' 46" N  5° 50' 50" W  View metadata report for BODC series reference number 542801
5428131979-09-22 23:24  — 1979-09-22 23:25 55° 27' 43" N  5° 51' 13" W  View metadata report for BODC series reference number 542813
5428251979-09-23 00:31  — 1979-09-23 00:32 55° 32' 47" N  5° 51' 2" W  View metadata report for BODC series reference number 542825
5428371979-09-23 01:23  — 1979-09-23 01:24 55° 37' 44" N  5° 50' 51" W  View metadata report for BODC series reference number 542837
5428491979-09-23 03:08  — 1979-09-23 03:10 55° 43' 40" N  5° 50' 7" W  View metadata report for BODC series reference number 542849
5428501979-09-23 03:51  — 1979-09-23 03:53 55° 47' 37" N  5° 46' 51" W  View metadata report for BODC series reference number 542850
5428621979-09-23 04:51  — 1979-09-23 04:53 55° 51' 25" N  5° 46' 27" W  View metadata report for BODC series reference number 542862
5428741979-09-23 12:08  — 1979-09-23 12:09 55° 45' 3" N  5° 51' 55" W  View metadata report for BODC series reference number 542874
5428861979-09-23 13:27  — 1979-09-23 13:28 55° 38' 23" N  5° 59' 22" W  View metadata report for BODC series reference number 542886
5428981979-09-23 16:53  — 1979-09-23 16:56 55° 28' 27" N  6° 24' 38" W  View metadata report for BODC series reference number 542898
5429051979-09-23 18:03  — 1979-09-23 18:04 55° 29' 17" N  6° 36' 52" W  View metadata report for BODC series reference number 542905
5429171979-09-23 19:26  — 1979-09-23 19:27 55° 30' 29" N  6° 50' 30" W  View metadata report for BODC series reference number 542917
5429291979-09-23 22:25  — 1979-09-23 22:26 55° 37' 12" N  7° 2' 20" W  View metadata report for BODC series reference number 542929
5429301979-09-24 01:48  — 1979-09-24 01:49 55° 50' 34" N  7° 23' 21" W  View metadata report for BODC series reference number 542930
5429421979-09-24 04:45  — 1979-09-24 04:47 55° 57' 10" N  7° 19' 43" W  View metadata report for BODC series reference number 542942
5429541979-09-24 08:40  — 1979-09-24 08:41 55° 52' 14" N  6° 32' 58" W  View metadata report for BODC series reference number 542954
5429661979-09-26 07:00  — 1979-09-26 07:01 55° 26' 15" N  7° 29' 10" W  View metadata report for BODC series reference number 542966
5429781979-09-27 06:39  — 1979-09-27 06:41 55° 0' 20" N  9° 59' 19" W  View metadata report for BODC series reference number 542978
5429911979-09-28 18:20  — 1979-09-28 18:33 55° 53' 0" N  6° 33' 56" W  View metadata report for BODC series reference number 542991
5430051979-09-28 20:06  — 1979-09-28 20:08 56° 4' 37" N  6° 46' 27" W  View metadata report for BODC series reference number 543005
5430171979-09-29 14:18  — 1979-09-29 14:19 56° 15' 27" N  7° 39' 40" W  View metadata report for BODC series reference number 543017
5430291979-09-29 15:52  — 1979-09-29 15:55 56° 15' 58" N  7° 58' 39" W  View metadata report for BODC series reference number 543029
5430301979-09-29 17:32  — 1979-09-29 17:33 56° 6' 20" N  7° 59' 57" W  View metadata report for BODC series reference number 543030
5430421979-09-29 19:09  — 1979-09-29 19:11 55° 56' 30" N  7° 59' 57" W  View metadata report for BODC series reference number 543042
5430541979-09-29 20:49  — 1979-09-29 20:50 55° 47' 1" N  7° 59' 13" W  View metadata report for BODC series reference number 543054
5430661979-09-29 22:39  — 1979-09-29 22:40 55° 37' 20" N  7° 58' 34" W  View metadata report for BODC series reference number 543066
5430781979-09-30 01:08  — 1979-09-30 01:09 55° 25' 56" N  8° 0' 0" W  View metadata report for BODC series reference number 543078
5430911979-09-30 03:23  — 1979-09-30 03:24 55° 25' 23" N  7° 39' 25" W  View metadata report for BODC series reference number 543091
5431091979-09-30 05:22  — 1979-09-30 05:23 55° 25' 2" N  7° 18' 56" W  View metadata report for BODC series reference number 543109
5431101979-09-30 06:58  — 1979-09-30 06:58 55° 22' 27" N  7° 5' 19" W  View metadata report for BODC series reference number 543110
5431221979-09-30 08:49  — 1979-09-30 08:50 55° 22' 1" N  6° 46' 54" W  View metadata report for BODC series reference number 543122
5431341979-09-30 10:21  — 1979-09-30 10:22 55° 22' 9" N  6° 32' 55" W  View metadata report for BODC series reference number 543134
5431461979-09-30 11:49  — 1979-09-30 11:51 55° 22' 38" N  6° 19' 43" W  View metadata report for BODC series reference number 543146
5431581979-09-30 14:18  — 1979-09-30 14:20 55° 12' 17" N  5° 55' 59" W  View metadata report for BODC series reference number 543158
5431711979-09-30 15:25  — 1979-09-30 15:26 55° 4' 28" N  5° 54' 1" W  View metadata report for BODC series reference number 543171
5431831979-09-30 16:35  — 1979-09-30 16:36 54° 56' 20" N  5° 49' 16" W  View metadata report for BODC series reference number 543183
5431951979-09-30 18:05  — 1979-09-30 18:06 54° 48' 49" N  5° 37' 39" W  View metadata report for BODC series reference number 543195
5432021979-09-30 19:38  — 1979-09-30 19:40 54° 40' 9" N  5° 28' 43" W  View metadata report for BODC series reference number 543202